Redruth, United Kingdom
Current Conditions -  °F | °C
As of 12:50 AM on Tuesday 23 Dec 2014 (Local Time) from EGDR Reporting Station
Haze Haze  
Wind Chill: 52°   Ceiling: 3000
Heat Index: 52°   Visibility: 6mi
Dew Point: 50°   Wind: 16mph
Humidity: 94%   Direction: 230°SW
Pressure: 30.18"   Gusts: 28mph
Location:  50.23°N, 5.23°W
Report Text: EGDR 230050Z 23014G24KT 9999 HZ FEW020 OVC030 11/10 Q1022 BLU
Loading
Personal Weather Stations






























Interactive Weather Map New forecast layout! Learn more

10-Day Weather Forecast

Advertisements
Track Severe Weather on mobile